Time;durP1;ratioP1;P1;durP2;ratioP2;P2;SDS_P1;SDS_P2;PMS_P1;PMS_P2;Temp;Humidity;BMP_temperature;BMP_pressure;BME280_temperature;BME280_humidity;BME280_pressure;Samples;Min_cycle;Max_cycle;Signal;HPM_P1;HPM_P2
2022/11/15 00:00:48;;;;;;;32.05;19.95;;;8.40;99.90;;;;;;5076466;28;20442;-88
2022/11/15 00:03:15;;;;;;;31.95;20.25;;;7.10;99.90;;;;;;5069776;28;20051;-87
2022/11/15 00:05:41;;;;;;;31.90;20.00;;;7.00;99.90;;;;;;5107125;28;20032;-87
2022/11/15 00:08:06;;;;;;;33.58;21.17;;;7.00;99.90;;;;;;5111708;28;20560;-86
2022/11/15 00:10:32;;;;;;;33.03;20.30;;;6.90;99.90;;;;;;5113101;28;20035;-88
2022/11/15 00:12:57;;;;;;;33.38;20.65;;;6.90;99.90;;;;;;5062641;28;20100;-87
2022/11/15 00:15:23;;;;;;;29.48;20.15;;;6.90;99.90;;;;;;5089764;28;20042;-85
2022/11/15 00:17:49;;;;;;;32.35;20.77;;;6.90;99.90;;;;;;5137281;27;20051;-85
2022/11/15 00:20:16;;;;;;;35.70;21.88;;;6.90;99.90;;;;;;5093862;28;20047;-87
2022/11/15 00:22:42;;;;;;;34.80;21.33;;;6.90;99.90;;;;;;5079503;28;20079;-86
2022/11/15 00:25:08;;;;;;;31.55;20.67;;;6.90;99.90;;;;;;5112538;28;20071;-87
2022/11/15 00:27:34;;;;;;;33.45;20.85;;;6.80;99.90;;;;;;5095998;28;20039;-87
2022/11/15 00:30:00;;;;;;;32.42;20.80;;;6.90;99.90;;;;;;5112841;28;20483;-87
2022/11/15 00:32:26;;;;;;;32.67;20.90;;;6.90;99.90;;;;;;5095342;28;20101;-87
2022/11/15 00:34:51;;;;;;;31.63;20.80;;;6.80;99.90;;;;;;5095883;28;20521;-87
2022/11/15 00:37:17;;;;;;;35.08;21.63;;;7.10;99.90;;;;;;5079257;28;20455;-87
2022/11/15 00:39:43;;;;;;;33.00;20.90;;;7.70;99.90;;;;;;5112325;28;20470;-87
2022/11/15 00:42:08;;;;;;;30.77;20.92;;;7.00;99.90;;;;;;5094450;28;20556;-87
2022/11/15 00:44:34;;;;;;;31.75;20.80;;;7.10;99.90;;;;;;5100329;28;20554;-87
2022/11/15 00:46:59;;;;;;;27.45;17.48;;;7.10;99.90;;;;;;5119824;28;20027;-85
2022/11/15 00:49:25;;;;;;;31.73;20.52;;;7.20;99.90;;;;;;5136122;27;20039;-85
2022/11/15 00:51:52;;;;;;;31.27;20.38;;;7.30;99.90;;;;;;5098726;28;20031;-86
2022/11/15 00:54:19;;;;;;;29.40;18.58;;;7.30;99.90;;;;;;5106131;28;20042;-87
2022/11/15 00:56:44;;;;;;;32.20;19.83;;;7.30;99.90;;;;;;5094654;28;20043;-87
2022/11/15 00:59:10;;;;;;;27.30;17.90;;;7.50;99.90;;;;;;5091157;28;20040;-87
2022/11/15 01:01:36;;;;;;;32.13;18.83;;;7.40;99.90;;;;;;5086923;28;20183;-87
2022/11/15 01:04:01;;;;;;;30.10;18.27;;;7.50;99.90;;;;;;5105896;28;20047;-87
2022/11/15 01:06:27;;;;;;;31.63;20.00;;;7.80;99.90;;;;;;5108519;28;20042;-87
2022/11/15 01:08:53;;;;;;;34.35;20.08;;;7.60;99.90;;;;;;5078561;28;20044;-87
2022/11/15 01:11:18;;;;;;;32.50;19.83;;;7.60;99.90;;;;;;5111691;28;20043;-87
2022/11/15 01:13:44;;;;;;;30.38;19.73;;;7.60;99.90;;;;;;5094934;28;20367;-88
2022/11/15 01:16:13;;;;;;;34.95;19.33;;;7.60;99.90;;;;;;5112289;28;20048;-87
2022/11/15 01:18:39;;;;;;;30.75;18.10;;;7.70;99.90;;;;;;5076197;28;20055;-87
2022/11/15 01:21:12;;;;;;;33.85;20.85;;;7.70;99.90;;;;;;5074925;28;20052;-87
2022/11/15 01:23:38;;;;;;;32.77;18.83;;;7.80;99.90;;;;;;5088750;28;20048;-87
2022/11/15 01:26:05;;;;;;;32.25;17.73;;;7.80;99.90;;;;;;5074040;28;20051;-87
2022/11/15 01:28:32;;;;;;;30.27;18.60;;;7.80;99.90;;;;;;5049561;28;20139;-86
2022/11/15 01:30:59;;;;;;;30.63;18.52;;;7.80;99.90;;;;;;5093368;28;20051;-86
2022/11/15 01:33:25;;;;;;;35.20;18.10;;;7.80;99.90;;;;;;5101087;28;20047;-84
2022/11/15 01:35:50;;;;;;;32.70;18.48;;;7.80;99.90;;;;;;5119145;27;20035;-85
2022/11/15 01:38:16;;;;;;;30.08;18.35;;;7.80;99.90;;;;;;5120745;27;20437;-87
2022/11/15 01:40:42;;;;;;;33.03;18.63;;;7.80;99.90;;;;;;5111244;28;20054;-86
2022/11/15 01:43:31;;;;;;;29.48;18.25;;;7.80;99.90;;;;;;5094817;28;20089;-86
2022/11/15 01:46:00;;;;;;;30.20;18.42;;;7.70;99.90;;;;;;5078186;28;20048;-87
2022/11/15 01:48:30;;;;;;;31.05;18.92;;;7.80;99.90;;;;;;5074208;28;20449;-87
2022/11/15 01:50:56;;;;;;;33.47;19.60;;;7.80;99.90;;;;;;5072086;28;20067;-87
2022/11/15 01:53:22;;;;;;;29.25;17.77;;;7.80;99.90;;;;;;5094302;28;20066;-87
2022/11/15 01:55:48;;;;;;;31.90;19.15;;;8.00;99.90;;;;;;5061053;28;20492;-87
2022/11/15 01:58:14;;;;;;;29.75;18.02;;;7.80;99.90;;;;;;5079853;28;20043;-87
2022/11/15 02:00:40;;;;;;;38.30;20.10;;;7.80;99.90;;;;;;5097958;28;20051;-88
2022/11/15 02:03:05;;;;;;;32.17;18.50;;;7.80;99.90;;;;;;5092722;27;20043;-86
2022/11/15 02:05:31;;;;;;;31.58;19.42;;;7.80;99.90;;;;;;5083840;28;20069;-86
2022/11/15 02:07:57;;;;;;;33.13;18.77;;;7.80;99.90;;;;;;5098478;28;20048;-86
2022/11/15 02:10:23;;;;;;;33.03;19.08;;;7.80;99.90;;;;;;5080849;28;20043;-87
2022/11/15 02:12:49;;;;;;;33.15;18.08;;;7.80;99.90;;;;;;5094408;28;20051;-87
2022/11/15 02:15:14;;;;;;;36.13;19.33;;;8.40;99.90;;;;;;5073747;28;20075;-87
2022/11/15 02:17:44;;;;;;;30.08;18.17;;;7.80;99.90;;;;;;5049819;28;20082;-87
2022/11/15 02:20:32;;;;;;;32.03;18.48;;;7.80;99.90;;;;;;5077320;28;20124;-87
2022/11/15 02:23:28;;;;;;;32.65;18.75;;;7.90;99.90;;;;;;5095210;28;20044;-87
2022/11/15 02:26:07;;;;;;;34.65;19.25;;;7.80;99.90;;;;;;5098551;28;20376;-87
2022/11/15 02:29:01;;;;;;;32.25;18.15;;;7.80;99.90;;;;;;5096354;28;20044;-85
2022/11/15 02:31:36;;;;;;;34.83;19.00;;;7.80;99.90;;;;;;5083337;28;20079;-87
2022/11/15 02:34:36;;;;;;;32.88;19.42;;;7.80;99.90;;;;;;5098465;28;20054;-86
2022/11/15 02:37:11;;;;;;;31.40;18.42;;;7.90;99.90;;;;;;5097486;28;20079;-86
2022/11/15 02:39:46;;;;;;;31.35;17.35;;;7.90;99.90;;;;;;5053993;28;20052;-87
2022/11/15 02:45:13;;;;;;;30.98;18.30;;;7.90;99.90;;;;;;5080425;28;20048;-87
2022/11/15 02:47:45;;;;;;;30.92;18.35;;;7.90;99.90;;;;;;5060943;28;20048;-86
2022/11/15 02:50:12;;;;;;;32.80;18.38;;;8.00;99.90;;;;;;5077231;28;20055;-87
2022/11/15 02:52:38;;;;;;;32.55;18.92;;;8.00;99.90;;;;;;5092326;28;20039;-84
2022/11/15 02:55:04;;;;;;;33.15;19.13;;;8.00;99.90;;;;;;5105079;27;20048;-86
2022/11/15 02:58:00;;;;;;;31.35;18.40;;;8.00;99.90;;;;;;5072717;28;20047;-86
2022/11/15 03:00:25;;;;;;;32.72;18.70;;;8.00;99.90;;;;;;5084230;28;20055;-87
2022/11/15 03:03:29;;;;;;;33.28;17.90;;;8.00;99.90;;;;;;5079638;28;20100;-87
2022/11/15 03:06:09;;;;;;;33.88;18.65;;;8.00;99.90;;;;;;5114475;28;20051;-87
2022/11/15 03:09:05;;;;;;;36.13;19.42;;;8.00;99.90;;;;;;5078044;28;20044;-87
2022/11/15 03:11:34;;;;;;;34.35;19.08;;;8.00;99.90;;;;;;5089617;28;20044;-85
2022/11/15 03:14:15;;;;;;;42.90;19.67;;;8.20;99.90;;;;;;5098194;28;20499;-86
2022/11/15 03:16:47;;;;;;;40.20;20.42;;;8.00;99.90;;;;;;5106912;28;20040;-87
2022/11/15 03:19:24;;;;;;;42.40;20.95;;;8.10;99.90;;;;;;5088970;28;20054;-85
2022/11/15 03:21:49;;;;;;;45.63;20.85;;;8.10;99.90;;;;;;5114524;28;20453;-86
2022/11/15 03:24:15;;;;;;;47.40;21.83;;;8.00;99.90;;;;;;5075577;28;20099;-87
2022/11/15 03:26:41;;;;;;;46.38;20.63;;;8.00;99.90;;;;;;5080023;28;20039;-87
2022/11/15 03:29:19;;;;;;;46.25;21.80;;;8.10;99.90;;;;;;5080632;28;20058;-87
2022/11/15 03:31:47;;;;;;;50.25;21.92;;;8.10;99.90;;;;;;5082076;28;20048;-87
2022/11/15 03:34:19;;;;;;;49.35;22.40;;;8.10;99.90;;;;;;5082052;28;20050;-86
2022/11/15 03:36:45;;;;;;;42.38;21.27;;;8.10;99.90;;;;;;5097313;28;20039;-86
2022/11/15 03:39:10;;;;;;;45.80;20.90;;;8.10;99.90;;;;;;5098188;28;20172;-87
2022/11/15 03:42:04;;;;;;;48.75;21.30;;;8.10;99.90;;;;;;5118099;28;20178;-86
2022/11/15 03:44:54;;;;;;;49.45;22.27;;;8.10;99.90;;;;;;5087317;28;20059;-87
2022/11/15 03:47:30;;;;;;;44.88;23.08;;;8.20;99.90;;;;;;5099131;28;20633;-87
2022/11/15 03:50:04;;;;;;;48.40;22.92;;;8.20;99.90;;;;;;5076547;28;20052;-87
2022/11/15 03:52:32;;;;;;;51.40;22.73;;;8.10;99.90;;;;;;5080641;28;20063;-87
2022/11/15 03:54:58;;;;;;;49.30;23.25;;;8.10;99.90;;;;;;5067240;28;20052;-87
2022/11/15 03:57:23;;;;;;;50.92;24.42;;;8.20;99.90;;;;;;5083660;28;20357;-87
2022/11/15 03:59:49;;;;;;;51.90;23.35;;;8.20;99.90;;;;;;5099571;28;20113;-86
2022/11/15 04:02:15;;;;;;;47.70;22.23;;;9.20;99.90;;;;;;5113225;28;20069;-87
2022/11/15 04:04:40;;;;;;;53.45;23.48;;;8.20;99.90;;;;;;5070457;28;20491;-86
2022/11/15 04:07:06;;;;;;;51.58;24.48;;;8.20;99.90;;;;;;5111188;28;20074;-87
2022/11/15 04:09:32;;;;;;;49.30;24.23;;;8.20;99.90;;;;;;5075990;28;20592;-86
2022/11/15 04:11:57;;;;;;;54.63;23.92;;;8.20;99.90;;;;;;5097441;27;20035;-85
2022/11/15 04:14:23;;;;;;;55.67;24.00;;;8.20;99.90;;;;;;5135769;27;20047;-87
2022/11/15 04:16:48;;;;;;;45.92;22.15;;;8.20;99.90;;;;;;5079063;28;20043;-87
2022/11/15 04:24:42;;;;;;;60.92;25.92;;;8.30;99.90;;;;;;5098412;28;20532;-86
2022/11/15 04:27:08;;;;;;;60.85;26.70;;;8.50;99.90;;;;;;5096434;28;20044;-86
2022/11/15 04:29:36;;;;;;;57.67;27.27;;;8.40;99.90;;;;;;5076203;28;20052;-87
2022/11/15 04:32:06;;;;;;;63.33;28.80;;;8.40;99.90;;;;;;5075857;28;20048;-86
2022/11/15 04:34:32;;;;;;;71.68;29.20;;;8.40;99.90;;;;;;5107895;27;20020;-86
2022/11/15 04:37:12;;;;;;;63.95;28.60;;;8.40;99.90;;;;;;5088793;28;20107;-85
2022/11/15 04:39:39;;;;;;;64.68;29.13;;;8.50;99.90;;;;;;5096195;28;20565;-87
2022/11/15 04:42:05;;;;;;;67.65;30.20;;;8.50;99.90;;;;;;5095464;28;20432;-87
2022/11/15 04:44:30;;;;;;;67.68;31.17;;;8.60;99.90;;;;;;5075668;28;20059;-86
2022/11/15 04:46:56;;;;;;;66.82;27.58;;;8.60;99.90;;;;;;5075297;28;20051;-85
2022/11/15 04:49:22;;;;;;;64.30;29.58;;;8.60;99.90;;;;;;5074859;28;20040;-87
2022/11/15 04:51:48;;;;;;;70.35;30.13;;;8.60;99.90;;;;;;5067717;28;20480;-86
2022/11/15 04:54:13;;;;;;;71.13;31.42;;;8.70;99.90;;;;;;5108797;28;20052;-86
2022/11/15 04:56:39;;;;;;;71.53;30.85;;;8.70;99.90;;;;;;5095612;28;20040;-87
2022/11/15 04:59:04;;;;;;;79.75;31.23;;;8.80;99.90;;;;;;5047674;28;20052;-86
2022/11/15 05:01:30;;;;;;;71.78;30.27;;;8.80;99.90;;;;;;5112510;28;20036;-87
2022/11/15 05:06:40;;;;;;;63.83;27.08;;;8.80;99.90;;;;;;5098348;28;20048;-86
2022/11/15 05:09:06;;;;;;;62.20;28.35;;;8.80;99.90;;;;;;5095148;28;20044;-87
2022/11/15 05:11:31;;;;;;;67.25;27.73;;;8.80;99.90;;;;;;5057919;28;20051;-87
2022/11/15 05:13:57;;;;;;;70.45;28.05;;;8.80;99.90;;;;;;5069715;28;20054;-87
2022/11/15 05:16:23;;;;;;;77.32;30.58;;;8.70;99.90;;;;;;5095138;28;20048;-87
2022/11/15 05:18:55;;;;;;;66.53;28.83;;;8.70;99.90;;;;;;5078129;28;20036;-85
2022/11/15 05:21:22;;;;;;;67.55;28.50;;;8.70;99.90;;;;;;5112405;28;20058;-87
2022/11/15 05:23:47;;;;;;;69.68;28.30;;;8.70;99.90;;;;;;5095087;28;20052;-87
2022/11/15 05:26:17;;;;;;;65.18;28.45;;;8.60;99.90;;;;;;5067173;28;20040;-87
2022/11/15 05:28:42;;;;;;;67.70;29.33;;;8.70;99.90;;;;;;5058268;28;20063;-86
2022/11/15 05:31:10;;;;;;;78.90;30.60;;;8.70;99.90;;;;;;5128479;28;20070;-86
2022/11/15 05:33:36;;;;;;;76.18;29.60;;;8.70;99.90;;;;;;5092446;28;20051;-87
2022/11/15 05:36:07;;;;;;;74.15;30.00;;;8.70;99.90;;;;;;5077943;28;20129;-87
2022/11/15 05:38:32;;;;;;;74.45;29.80;;;8.70;99.90;;;;;;5095386;28;20631;-86
2022/11/15 05:40:59;;;;;;;74.72;31.77;;;8.70;99.90;;;;;;5077734;28;20139;-85
2022/11/15 05:43:25;;;;;;;80.13;32.67;;;8.70;99.90;;;;;;5094972;28;20380;-87
2022/11/15 05:45:50;;;;;;;74.55;32.35;;;8.70;99.90;;;;;;5060940;28;20047;-86
2022/11/15 05:48:17;;;;;;;90.38;33.63;;;8.70;99.90;;;;;;5108870;28;20020;-86
2022/11/15 05:50:43;;;;;;;84.63;32.70;;;8.80;99.90;;;;;;5082160;28;20054;-86
2022/11/15 05:53:09;;;;;;;86.38;32.78;;;8.80;99.90;;;;;;5099110;28;20101;-86
2022/11/15 05:55:36;;;;;;;84.53;34.63;;;8.80;99.90;;;;;;5100062;28;20058;-87
2022/11/15 05:58:02;;;;;;;85.00;34.30;;;8.90;99.90;;;;;;5077718;28;20062;-85
2022/11/15 06:00:28;;;;;;;77.53;34.13;;;8.90;99.90;;;;;;5077590;28;20486;-86
2022/11/15 06:02:54;;;;;;;78.43;34.20;;;9.00;99.90;;;;;;5094418;28;20054;-87
2022/11/15 06:05:20;;;;;;;79.68;33.33;;;9.00;99.90;;;;;;5094220;28;20035;-87
2022/11/15 06:07:52;;;;;;;89.25;35.25;;;9.00;99.90;;;;;;5110978;28;20047;-87
2022/11/15 06:10:18;;;;;;;80.63;34.15;;;9.00;99.90;;;;;;5110409;28;20429;-87
2022/11/15 06:12:43;;;;;;;84.93;36.75;;;9.10;99.90;;;;;;5110816;28;20039;-86
2022/11/15 06:15:09;;;;;;;85.00;34.65;;;9.20;99.90;;;;;;5107894;28;20052;-86
2022/11/15 06:17:35;;;;;;;79.97;35.42;;;9.20;99.90;;;;;;5082676;28;20051;-86
2022/11/15 06:20:00;;;;;;;82.63;35.58;;;9.30;99.90;;;;;;5106915;28;20564;-86
2022/11/15 06:22:26;;;;;;;77.97;33.63;;;9.30;99.90;;;;;;5094226;28;20118;-86
2022/11/15 06:24:52;;;;;;;73.90;34.33;;;9.30;99.90;;;;;;5110385;28;20560;-87
2022/11/15 06:27:17;;;;;;;78.47;33.25;;;9.40;99.90;;;;;;5110510;28;20227;-87
2022/11/15 06:29:43;;;;;;;68.70;32.97;;;9.40;99.90;;;;;;5094101;28;20052;-87
2022/11/15 06:32:09;;;;;;;65.97;31.65;;;9.60;99.90;;;;;;5110411;28;20399;-87
2022/11/15 06:34:35;;;;;;;63.13;31.00;;;9.60;99.90;;;;;;5060275;28;20511;-85
2022/11/15 06:37:02;;;;;;;73.00;31.70;;;9.60;99.90;;;;;;5093589;28;20102;-86
2022/11/15 06:39:27;;;;;;;69.28;32.63;;;9.60;99.90;;;;;;5060124;28;20491;-87
2022/11/15 06:41:53;;;;;;;68.07;33.03;;;9.60;99.90;;;;;;5076728;28;20053;-86
2022/11/15 06:44:19;;;;;;;65.95;31.67;;;9.70;99.90;;;;;;5110451;28;20127;-87
2022/11/15 06:46:44;;;;;;;66.10;31.05;;;9.70;99.90;;;;;;5093487;28;20055;-87
2022/11/15 06:49:10;;;;;;;60.38;31.02;;;9.70;99.90;;;;;;5104140;27;20040;-85
2022/11/15 06:51:36;;;;;;;59.20;29.42;;;9.70;99.90;;;;;;5108367;28;20087;-86
2022/11/15 06:54:01;;;;;;;60.05;29.83;;;9.90;99.90;;;;;;5109427;28;20514;-85
2022/11/15 06:56:27;;;;;;;58.22;29.77;;;9.90;99.90;;;;;;5093781;28;20048;-87
2022/11/15 06:58:53;;;;;;;68.78;30.70;;;9.90;99.90;;;;;;5110178;28;20040;-87
2022/11/15 07:01:18;;;;;;;67.43;32.30;;;9.90;99.90;;;;;;5110063;28;20054;-87
2022/11/15 07:03:45;;;;;;;59.35;28.98;;;9.90;99.90;;;;;;5110250;27;20028;-86
2022/11/15 07:06:11;;;;;;;58.55;27.90;;;9.90;99.90;;;;;;5117436;28;20064;-85
2022/11/15 07:08:37;;;;;;;63.05;30.20;;;10.00;99.90;;;;;;5116522;28;20028;-86
2022/11/15 07:11:05;;;;;;;57.40;29.42;;;9.90;99.90;;;;;;5098561;28;20089;-87
2022/11/15 07:13:34;;;;;;;56.13;27.90;;;10.00;99.90;;;;;;5096313;28;20047;-87
2022/11/15 07:16:07;;;;;;;60.55;27.35;;;10.00;99.90;;;;;;5070670;28;20100;-87
2022/11/15 07:18:37;;;;;;;57.13;28.13;;;10.10;99.90;;;;;;5059687;28;20616;-87
2022/11/15 07:21:03;;;;;;;54.97;28.00;;;10.10;99.90;;;;;;5077142;28;20047;-87
2022/11/15 07:23:29;;;;;;;54.55;25.83;;;10.10;99.90;;;;;;5092271;28;20543;-87
2022/11/15 07:25:59;;;;;;;57.58;28.17;;;10.10;99.90;;;;;;5113390;28;20161;-86
2022/11/15 07:28:25;;;;;;;50.53;26.73;;;10.20;99.90;;;;;;5080125;28;20086;-87
2022/11/15 07:30:54;;;;;;;51.15;26.33;;;10.20;99.90;;;;;;5076571;28;20113;-86
2022/11/15 07:33:20;;;;;;;48.70;26.48;;;10.20;99.90;;;;;;5088675;28;20051;-86
2022/11/15 07:35:48;;;;;;;48.75;25.98;;;10.30;99.90;;;;;;5079583;28;20043;-86
2022/11/15 07:38:14;;;;;;;46.70;25.13;;;10.30;99.90;;;;;;5096927;28;20492;-86
2022/11/15 07:40:40;;;;;;;54.15;26.42;;;10.30;99.90;;;;;;5079243;28;20040;-86
2022/11/15 07:43:06;;;;;;;46.45;24.42;;;10.30;99.90;;;;;;5114068;28;20453;-87
2022/11/15 07:45:34;;;;;;;45.92;24.52;;;10.40;99.90;;;;;;5095814;28;20044;-86
2022/11/15 07:48:00;;;;;;;48.00;24.95;;;10.50;99.90;;;;;;5062941;28;20565;-86
2022/11/15 07:50:25;;;;;;;48.13;24.48;;;10.50;99.90;;;;;;5096141;28;20051;-86
2022/11/15 07:52:58;;;;;;;46.22;25.13;;;10.70;99.90;;;;;;5075436;28;20113;-86
2022/11/15 07:55:24;;;;;;;41.53;23.83;;;10.60;99.90;;;;;;5104786;28;20047;-86
2022/11/15 07:57:50;;;;;;;46.83;25.30;;;10.70;99.90;;;;;;5113334;28;20040;-86
2022/11/15 08:00:16;;;;;;;41.97;23.45;;;10.70;99.90;;;;;;5095756;28;20051;-85
2022/11/15 08:02:42;;;;;;;39.05;23.02;;;10.70;99.90;;;;;;5098001;28;20480;-85
2022/11/15 08:05:07;;;;;;;41.10;23.45;;;10.80;99.90;;;;;;5108548;28;20052;-87
2022/11/15 08:07:33;;;;;;;40.47;23.42;;;10.80;99.90;;;;;;5073170;28;20028;-84
2022/11/15 08:10:00;;;;;;;36.83;22.63;;;10.80;99.90;;;;;;5101621;28;20451;-83
2022/11/15 08:12:28;;;;;;;43.00;23.33;;;10.80;99.90;;;;;;5098610;28;20046;-87
2022/11/15 08:14:55;;;;;;;40.03;22.58;;;10.80;99.90;;;;;;5047308;28;20048;-87
2022/11/15 08:17:22;;;;;;;36.38;21.48;;;10.80;99.90;;;;;;5065825;28;20052;-85
2022/11/15 08:19:48;;;;;;;39.33;22.35;;;10.80;99.90;;;;;;5082856;28;20044;-84
2022/11/15 08:22:14;;;;;;;36.95;21.77;;;10.90;99.90;;;;;;5102844;28;20016;-84
2022/11/15 08:24:39;;;;;;;37.67;22.85;;;10.90;99.90;;;;;;5097797;28;20036;-85
2022/11/15 08:27:14;;;;;;;36.13;23.00;;;10.90;99.90;;;;;;5108064;28;20044;-86
2022/11/15 08:29:41;;;;;;;34.55;22.00;;;10.90;99.90;;;;;;5091396;28;20047;-85
2022/11/15 08:32:07;;;;;;;37.33;22.25;;;10.90;99.90;;;;;;5074773;28;20048;-85
2022/11/15 08:34:33;;;;;;;34.92;21.63;;;10.90;99.90;;;;;;5074940;28;20051;-86
2022/11/15 08:36:58;;;;;;;35.22;22.13;;;11.00;99.90;;;;;;5094334;28;20367;-85
2022/11/15 08:39:24;;;;;;;34.67;20.98;;;11.10;99.90;;;;;;5076146;28;20100;-86
2022/11/15 08:41:50;;;;;;;35.05;21.58;;;11.10;99.90;;;;;;5093801;28;20040;-86
2022/11/15 08:44:15;;;;;;;30.50;20.92;;;11.20;99.90;;;;;;5077540;28;20058;-85
2022/11/15 08:46:41;;;;;;;33.65;21.48;;;11.20;99.90;;;;;;5091673;28;20036;-86
2022/11/15 08:49:07;;;;;;;33.33;20.90;;;11.30;99.90;;;;;;5084249;28;20141;-85
2022/11/15 08:51:32;;;;;;;29.40;19.77;;;11.30;99.90;;;;;;5061456;28;20503;-85
2022/11/15 08:53:58;;;;;;;31.75;20.60;;;11.40;99.90;;;;;;5093680;28;20070;-85
2022/11/15 08:56:23;;;;;;;32.67;20.88;;;11.40;99.90;;;;;;5082125;28;20089;-87
2022/11/15 08:58:49;;;;;;;33.13;21.48;;;11.40;99.90;;;;;;5057710;28;20050;-85
2022/11/15 09:01:19;;;;;;;32.03;20.33;;;11.40;99.90;;;;;;5071836;28;20044;-85
2022/11/15 09:03:44;;;;;;;32.75;21.25;;;11.40;99.90;;;;;;5090996;28;20055;-90
2022/11/15 09:06:10;;;;;;;29.77;20.73;;;11.40;99.90;;;;;;5071188;28;20559;-85
2022/11/15 09:08:36;;;;;;;31.42;20.42;;;11.50;99.90;;;;;;5109026;28;20067;-84
2022/11/15 09:11:05;;;;;;;26.15;19.65;;;11.50;99.90;;;;;;5069160;28;20043;-85
2022/11/15 09:13:31;;;;;;;31.52;21.00;;;11.50;99.90;;;;;;5087684;28;20100;-86
2022/11/15 09:16:01;;;;;;;30.80;20.38;;;11.50;99.90;;;;;;5072772;28;20043;-85
2022/11/15 09:18:27;;;;;;;30.88;19.50;;;11.60;99.90;;;;;;5082746;28;20077;-85
2022/11/15 09:20:57;;;;;;;29.52;19.98;;;11.60;99.90;;;;;;5093367;28;20438;-85
2022/11/15 09:23:23;;;;;;;30.05;20.23;;;11.60;99.90;;;;;;5073625;28;20083;-83
2022/11/15 09:25:48;;;;;;;30.15;19.70;;;11.70;99.90;;;;;;5077106;28;20059;-85
2022/11/15 09:28:14;;;;;;;27.25;19.30;;;11.70;99.90;;;;;;5097572;27;20034;-87
2022/11/15 09:30:40;;;;;;;28.38;20.38;;;11.70;99.90;;;;;;5104466;28;20055;-90
2022/11/15 09:33:09;;;;;;;31.35;19.77;;;11.70;99.90;;;;;;5106210;28;20508;-87
2022/11/15 09:35:35;;;;;;;27.10;19.48;;;11.80;99.90;;;;;;5083182;28;20046;-86
2022/11/15 09:38:01;;;;;;;27.55;20.20;;;11.90;99.90;;;;;;5108813;28;20016;-85
2022/11/15 09:40:26;;;;;;;25.42;18.95;;;11.90;99.90;;;;;;5093606;28;20460;-88
2022/11/15 09:43:03;;;;;;;26.75;19.63;;;11.90;99.90;;;;;;5098969;28;20095;-86
2022/11/15 09:45:42;;;;;;;27.40;19.25;;;11.90;99.90;;;;;;5094150;28;20114;-87
2022/11/15 09:48:19;;;;;;;28.42;19.58;;;11.90;99.90;;;;;;5057845;28;20433;-88
2022/11/15 09:50:50;;;;;;;28.77;18.95;;;11.90;99.90;;;;;;5090056;28;20047;-87
2022/11/15 09:53:24;;;;;;;29.52;20.67;;;11.90;99.90;;;;;;5077870;28;20066;-88
2022/11/15 09:56:00;;;;;;;28.27;18.92;;;11.90;99.90;;;;;;5093570;28;20059;-87
2022/11/15 09:58:30;;;;;;;26.33;19.38;;;11.90;99.90;;;;;;5068490;28;20043;-89
2022/11/15 10:00:56;;;;;;;26.25;18.80;;;11.90;99.90;;;;;;5081864;28;20418;-85
2022/11/15 10:03:33;;;;;;;25.20;18.55;;;11.80;99.90;;;;;;5066522;28;20085;-88
2022/11/15 10:06:02;;;;;;;30.40;19.65;;;11.80;99.90;;;;;;5093579;28;20070;-88
2022/11/15 10:09:01;;;;;;;24.67;19.05;;;11.80;99.90;;;;;;5081634;28;20074;-86
2022/11/15 10:11:31;;;;;;;27.05;19.52;;;11.80;99.90;;;;;;5084004;28;20047;-85
2022/11/15 10:14:02;;;;;;;26.95;20.80;;;11.80;99.90;;;;;;5073082;28;20044;-87
2022/11/15 10:16:28;;;;;;;29.02;20.63;;;11.70;99.90;;;;;;5079677;28;20058;-86
2022/11/15 10:19:15;;;;;;;31.58;21.65;;;11.70;99.90;;;;;;5095522;28;20048;-86
2022/11/15 10:21:45;;;;;;;31.15;21.40;;;11.70;99.90;;;;;;5100249;28;20040;-87
2022/11/15 10:24:12;;;;;;;30.67;22.85;;;11.70;99.90;;;;;;5076624;28;20078;-86
2022/11/15 10:26:39;;;;;;;30.77;22.50;;;11.70;99.90;;;;;;5097581;28;20051;-84
2022/11/15 10:29:05;;;;;;;30.45;22.50;;;11.70;99.90;;;;;;5084892;28;20275;-85
2022/11/15 10:31:30;;;;;;;32.42;23.27;;;11.70;99.90;;;;;;5074109;28;20067;-86
2022/11/15 10:34:18;;;;;;;32.95;23.50;;;11.70;99.90;;;;;;5107974;28;20036;-85
2022/11/15 10:36:58;;;;;;;30.75;23.63;;;11.70;99.90;;;;;;5086330;28;20040;-85
2022/11/15 10:39:24;;;;;;;36.78;25.33;;;11.70;99.90;;;;;;5061667;28;20056;-85
2022/11/15 10:41:50;;;;;;;33.70;25.25;;;11.70;99.90;;;;;;5110335;28;20376;-85
2022/11/15 10:44:21;;;;;;;37.30;25.02;;;11.70;99.90;;;;;;5077072;28;20101;-86
2022/11/15 10:46:54;;;;;;;37.45;25.63;;;11.60;99.90;;;;;;5094033;28;20039;-85
2022/11/15 10:49:21;;;;;;;31.75;25.38;;;11.60;99.90;;;;;;5129828;27;20028;-84
2022/11/15 10:51:48;;;;;;;38.72;26.02;;;11.60;99.90;;;;;;5118899;27;20043;-86
2022/11/15 10:54:21;;;;;;;34.42;25.23;;;11.70;99.90;;;;;;5119660;28;20582;-84
2022/11/15 10:56:55;;;;;;;36.00;25.65;;;11.70;99.90;;;;;;5095121;28;20125;-87
2022/11/15 10:59:29;;;;;;;36.30;25.27;;;11.80;99.90;;;;;;5080975;28;20071;-86
2022/11/15 11:01:54;;;;;;;35.72;25.40;;;11.80;99.90;;;;;;5070501;28;20052;-87
2022/11/15 11:04:20;;;;;;;39.92;26.05;;;11.90;99.90;;;;;;5080569;28;20126;-87
2022/11/15 11:07:22;;;;;;;39.67;26.73;;;11.90;99.90;;;;;;5069929;28;20130;-88
2022/11/15 11:10:02;;;;;;;36.47;25.92;;;11.90;99.90;;;;;;5102483;28;20331;-86
2022/11/15 11:12:31;;;;;;;34.38;23.52;;;11.90;99.90;;;;;;5093405;28;20048;-85
2022/11/15 11:14:58;;;;;;;30.95;21.85;;;12.10;99.90;;;;;;5081989;28;20048;-86
2022/11/15 11:17:36;;;;;;;27.80;20.27;;;12.20;99.90;;;;;;5083786;28;20119;-86
2022/11/15 11:20:11;;;;;;;27.35;18.58;;;12.40;99.90;;;;;;5091156;28;20047;-87
2022/11/15 11:22:58;;;;;;;25.58;18.25;;;12.40;99.90;;;;;;5085361;28;20097;-86
2022/11/15 11:25:39;;;;;;;20.98;16.42;;;12.50;99.90;;;;;;5083518;28;20035;-86
2022/11/15 11:28:15;;;;;;;20.83;14.55;;;12.60;99.90;;;;;;5096375;28;20052;-85
2022/11/15 11:31:05;;;;;;;20.08;15.07;;;12.70;99.90;;;;;;5067018;28;20075;-83
2022/11/15 11:33:33;;;;;;;17.65;14.30;;;12.70;99.90;;;;;;5103933;28;20052;-86
2022/11/15 11:36:04;;;;;;;18.65;13.35;;;12.80;99.90;;;;;;5093775;28;20044;-85
2022/11/15 11:38:33;;;;;;;16.10;12.85;;;12.90;99.90;;;;;;5107796;28;20772;-87
2022/11/15 11:41:17;;;;;;;19.10;13.00;;;12.90;99.90;;;;;;5093097;28;20572;-87
2022/11/15 11:43:52;;;;;;;15.32;11.23;;;12.80;99.90;;;;;;5060601;28;20065;-85
2022/11/15 11:46:35;;;;;;;16.55;9.63;;;12.70;99.90;;;;;;5115899;28;20059;-86
2022/11/15 11:49:10;;;;;;;13.07;10.60;;;12.80;99.90;;;;;;5079832;28;20067;-85
2022/11/15 11:52:01;;;;;;;13.30;9.45;;;12.90;99.90;;;;;;5091360;28;20109;-86
2022/11/15 11:54:54;;;;;;;10.15;8.40;;;13.10;99.90;;;;;;5106372;28;20059;-87
2022/11/15 11:57:45;;;;;;;11.77;7.72;;;13.20;99.90;;;;;;5103717;28;20070;-88
2022/11/15 12:00:20;;;;;;;8.52;7.18;;;13.30;99.90;;;;;;5080641;28;20052;-87
2022/11/15 12:03:25;;;;;;;9.13;6.40;;;13.30;99.90;;;;;;5111037;28;20059;-82
2022/11/15 12:05:54;;;;;;;11.87;7.13;;;13.20;99.90;;;;;;5082529;27;20027;-83
2022/11/15 12:08:39;;;;;;;8.30;5.95;;;13.10;99.90;;;;;;5094931;28;20288;-85
2022/11/15 12:11:33;;;;;;;8.25;6.22;;;12.90;99.90;;;;;;5103079;28;20036;-84
2022/11/15 12:14:01;;;;;;;10.13;6.55;;;12.80;99.90;;;;;;5090175;28;20048;-86
2022/11/15 12:16:28;;;;;;;11.75;6.35;;;12.70;99.90;;;;;;5076304;28;20048;-85
2022/11/15 12:18:55;;;;;;;10.90;6.75;;;12.70;99.90;;;;;;5092733;28;20058;-86
2022/11/15 12:21:54;;;;;;;7.72;5.75;;;12.70;99.90;;;;;;5089111;28;20386;-85
2022/11/15 12:24:26;;;;;;;8.35;5.95;;;12.70;99.90;;;;;;5076965;28;20047;-86
2022/11/15 12:27:14;;;;;;;11.50;5.65;;;12.70;99.90;;;;;;5079142;28;20130;-86
2022/11/15 12:29:47;;;;;;;8.98;6.50;;;12.50;99.90;;;;;;5096261;28;20090;-84
2022/11/15 12:32:32;;;;;;;8.73;6.33;;;12.40;99.90;;;;;;5079490;28;20039;-85
2022/11/15 12:34:58;;;;;;;9.15;5.72;;;12.30;99.90;;;;;;5079354;28;20285;-84
2022/11/15 12:37:46;;;;;;;7.53;5.70;;;12.30;99.90;;;;;;5095428;28;20057;-86
2022/11/15 12:40:34;;;;;;;8.60;6.20;;;12.40;99.90;;;;;;5073148;28;20543;-86
2022/11/15 12:43:12;;;;;;;8.68;6.22;;;12.40;99.90;;;;;;5108633;28;20079;-85
2022/11/15 12:45:42;;;;;;;8.52;5.78;;;12.30;99.90;;;;;;5112414;28;20051;-85
2022/11/15 12:48:17;;;;;;;6.25;5.43;;;12.30;99.90;;;;;;5078951;28;20442;-85
2022/11/15 12:50:53;;;;;;;7.68;5.45;;;12.30;99.90;;;;;;5079014;28;20398;-86
2022/11/15 12:53:25;;;;;;;8.15;5.75;;;12.30;99.90;;;;;;5078058;28;20059;-85
2022/11/15 12:56:14;;;;;;;6.15;5.03;;;12.30;99.90;;;;;;5078860;28;20124;-86
2022/11/15 12:58:52;;;;;;;7.97;5.78;;;12.30;99.90;;;;;;5112429;28;20442;-84